Data for 07/17/2007

Time Sea-Level Adjusted Pressure Absolute Pressure Temperature Relative Humidity Dew Point   
(mb) (inHg) (mb) (inHg) (C) (F) (%) (C) (F)
00:05 1018 30.06 848 25.04 20.5 68.9 58 12 53.6
00:10 1018 30.06 848 25.04 20.7 69.3 57 12 53.6
00:15 1018 30.06 848 25.04 20.8 69.4 61 13 55.4
00:20 1018 30.06 847 25.01 20.3 68.5 65 13.6 56.4
00:25 1018 30.06 847 25.01 19.9 67.9 66 13.4 56.1
00:30 1018 30.06 847 25.01 19.9 67.7 63 12.7 54.9
00:35 1018 30.06 847 25.01 19.8 67.7 63 12.6 54.6
00:40 1018 30.06 847 25.01 19.7 67.5 63 12.5 54.5
00:45 1018 30.06 848 25.04 19.7 67.4 64 12.7 54.9
00:50 1018 30.06 848 25.04 19.9 67.8 59 11.9 53.4
00:55 1018 30.06 848 25.04 20.4 68.7 57 11.7 53
01:00 1018 30.06 848 25.04 20.6 69.1 54 11.1 52.1
01:05 1018 30.06 848 25.04 20.6 69.1 57 12 53.5
01:10 1018 30.06 848 25.04 20.8 69.4 54 11.4 52.5
01:15 1018 30.06 848 25.04 20.9 69.7 54 11.4 52.5
01:20 1018 30.06 848 25.04 21 69.8 51 10.7 51.3
01:25 1019 30.09 848 25.04 21.3 70.3 56 12.2 54
01:30 1019 30.09 848 25.04 20.8 69.5 60 12.8 55.1
01:35 1019 30.09 848 25.04 20.1 68.3 61 12.5 54.5
01:40 1019 30.09 848 25.04 19.7 67.5 62 12.4 54.4
01:45 1019 30.09 848 25.04 19.8 67.6 64 12.8 55
01:50 1019 30.09 848 25.04 19.9 67.8 64 13.1 55.6
01:55 1019 30.09 848 25.04 20.1 68.1 58 11.8 53.2
02:00 1019 30.09 848 25.04 20.2 68.4 61 12.5 54.5
02:05 1019 30.09 848 25.04 20 68 61 12.5 54.5
02:10 1019 30.09 848 25.04 20.2 68.3 59 11.9 53.5
02:15 1019 30.09 848 25.04 20.9 69.5 56 11.9 53.4
02:20 1019 30.09 848 25.04 21.1 69.9 60 13.1 55.7
02:25 1019 30.09 848 25.04 20.8 69.4 60 12.9 55.2
02:30 1019 30.09 848 25.04 20.3 68.5 66 13.9 57
02:35 1019 30.09 848 25.04 19.4 67 67 13.3 56
02:40 1019 30.09 848 25.04 19.1 66.3 68 13.2 55.8
02:45 1019 30.09 848 25.04 19 66.2 66 12.6 54.6
02:50 1019 30.09 848 25.04 19.2 66.5 69 13.5 56.2
02:55 1019 30.09 848 25.04 19.2 66.6 64 12.4 54.3
03:00 1019 30.09 848 25.04 19.5 67 65 12.8 55.1
03:05 1019 30.09 848 25.04 19.6 67.3 65 13.1 55.5
03:10 1019 30.09 848 25.04 19.5 67.1 64 12.5 54.5
03:15 1019 30.09 848 25.04 19.8 67.6 60 11.9 53.5
03:20 1019 30.09 848 25.04 19.9 67.9 67 13.7 56.6
03:25 1019 30.09 848 25.04 19.7 67.5 62 12.5 54.4
03:30 1019 30.09 848 25.04 20.2 68.3 60 12.2 54
03:35 1019 30.09 848 25.04 20.6 69.1 55 11.4 52.5
03:40 1019 30.09 848 25.04 20.5 68.8 57 11.9 53.3
03:45 1019 30.09 848 25.04 20.3 68.6 60 12.4 54.3
03:50 1019 30.09 848 25.04 20.2 68.4 58 11.9 53.3
03:55 1019 30.09 848 25.04 20.5 68.8 61 12.9 55.3
04:00 1019 30.09 848 25.04 19.8 67.7 63 12.6 54.7
04:05 1019 30.09 848 25.04 20.2 68.3 58 11.8 53.3
04:10 1019 30.09 848 25.04 20.3 68.6 64 13.5 56.2
04:15 1019 30.09 848 25.04 19.6 67.4 69 13.9 57
04:20 1018 30.06 848 25.04 18.9 65.9 72 13.8 56.8
04:25 1018 30.06 848 25.04 18.3 65 73 13.5 56.3
04:30 1018 30.06 848 25.04 18.3 65 72 13.1 55.7
04:35 1018 30.06 848 25.04 18.5 65.3 69 12.8 55.1
04:40 1018 30.06 848 25.04 18.6 65.4 69 12.8 55
04:45 1018 30.06 848 25.04 18.6 65.4 69 12.9 55.2
04:50 1019 30.09 848 25.04 18.5 65.3 68 12.5 54.6
04:55 1019 30.09 848 25.04 18.8 65.9 65 12.1 53.8
05:00 1018 30.06 848 25.04 19.4 66.9 60 11.6 52.9
05:05 1018 30.06 847 25.01 19.4 66.9 67 13.2 55.8
05:10 1018 30.06 847 25.01 18.5 65.4 70 13 55.5
05:15 1018 30.06 847 25.01 18.5 65.3 65 11.9 53.4
05:20 1018 30.06 847 25.01 19 66.1 65 12.4 54.2
05:25 1018 30.06 847 25.01 18.9 66 65 12.3 54.1
05:30 1018 30.06 847 25.01 18.9 66 66 12.4 54.3
05:35 1018 30.06 847 25.01 18.8 65.8 66 12.3 54.1
05:40 1018 30.06 847 25.01 18.9 66.1 64 12 53.6
05:45 1018 30.06 847 25.01 19.1 66.3 64 12.1 53.8
05:50 1018 30.06 847 25.01 19.1 66.4 63 12 53.7
05:55 1018 30.06 847 25.01 19.3 66.7 61 11.7 53.1
06:00 1018 30.06 847 25.01 19.6 67.2 60 11.6 52.9
06:05 1018 30.06 847 25.01 19.8 67.6 59 11.7 53
06:10 1018 30.06 847 25.01 19.8 67.6 59 11.8 53.2
06:15 1017 30.03 847 25.01 19.8 67.7 58 11.4 52.6
06:20 1018 30.06 847 25.01 20 68.1 57 11.3 52.3
06:25 1018 30.06 847 25.01 20.3 68.5 54 10.9 51.6
06:30 1018 30.06 847 25.01 20.6 69.1 53 10.9 51.7
06:35 1018 30.06 847 25.01 20.7 69.2 54 11.2 52.1
06:40 1018 30.06 847 25.01 20.2 68.4 57 11.5 52.7
06:45 1018 30.06 847 25.01 20.3 68.5 59 12.2 53.9
06:50 1018 30.06 847 25.01 20.4 68.7 55 11.1 52
06:55 1018 30.06 847 25.01 20.5 68.8 55 11.3 52.3
07:00 1018 30.06 847 25.01 20.6 69 53 10.9 51.6
07:05 1018 30.06 847 25.01 20.7 69.2 53 10.9 51.5
07:10 1018 30.06 847 25.01 20.8 69.4 54 11.3 52.4
07:15 1018 30.06 847 25.01 20.6 69 56 11.6 52.8
07:20 1018 30.06 847 25.01 20.6 69.1 56 11.6 52.8
07:25 1018 30.06 847 25.01 20.9 69.6 53 11.2 52.1
07:30 1018 30.06 847 25.01 21 69.7 54 11.4 52.5
07:35 1018 30.06 847 25.01 21 69.7 55 11.8 53.2
07:40 1018 30.06 847 25.01 20.8 69.4 55 11.5 52.7
07:45 1018 30.06 847 25.01 20.8 69.4 55 11.6 52.9
07:50 1018 30.06 847 25.01 20.9 69.7 56 11.9 53.5
07:55 1018 30.06 847 25.01 21.1 70.1 56 12.1 53.8
08:00 1018 30.06 847 25.01 21.5 70.6 54 11.8 53.3
08:05 1018 30.06 847 25.01 21.4 70.4 60 13.3 56
08:10 1018 30.06 847 25.01 21.4 70.6 51 10.9 51.7
08:15 1018 30.06 847 25.01 21.8 71.3 54 12.3 54.1
08:20 1018 30.06 847 25.01 21.8 71.2 53 11.9 53.4
08:25 1018 30.06 847 25.01 22.1 71.8 51 11.5 52.7
08:30 1018 30.06 847 25.01 22.6 72.6 50 11.7 53.1
08:35 1018 30.06 847 25.01 23.1 73.6 49 12 53.7
08:40 1018 30.06 847 25.01 23.5 74.4 49 12.3 54.2
08:45 1018 30.06 847 25.01 23.8 74.8 49 12.5 54.5
08:50 1018 30.06 847 25.01 23.7 74.6 55 14.2 57.6
08:55 1018 30.06 847 25.01 23.1 73.6 54 13.5 56.4
09:00 1018 30.06 847 25.01 23 73.4 54 13.3 56
09:05 1018 30.06 847 25.01 23 73.4 53 13.2 55.7
09:10 1018 30.06 847 25.01 23.7 74.6 51 13.2 55.7
09:15 1018 30.06 847 25.01 23.8 74.9 51 13.2 55.7
09:20 1018 30.06 847 25.01 24.6 76.2 45 12.1 53.8
09:25 1018 30.06 847 25.01 25.1 77.2 45 12.7 54.9
09:30 1018 30.06 847 25.01 25 77 46 12.6 54.7
09:35 1018 30.06 847 25.01 25.3 77.6 44 12.4 54.3
09:40 1018 30.06 847 25.01 26.2 79.1 43 12.8 55
09:45 1018 30.06 847 25.01 26.3 79.4 42 12.8 55
09:50 1018 30.06 847 25.01 25.8 78.4 43 12.4 54.4
09:55 1018 30.06 847 25.01 25.6 78 43 12.4 54.3
10:00 1018 30.06 847 25.01 26.1 78.9 43 12.7 54.9
10:05 1018 30.06 847 25.01 25.9 78.6 48 14.2 57.5
10:10 1018 30.06 847 25.01 25.5 78 47 13.7 56.7
10:15 1018 30.06 847 25.01 24.8 76.6 49 13.4 56.2
10:20 1018 30.06 847 25.01 25.3 77.5 47 13.4 56.1
10:25 1018 30.06 847 25.01 25.7 78.2 44 12.6 54.8
10:30 1018 30.06 847 25.01 26.2 79.2 45 13.6 56.4
10:35 1018 30.06 847 25.01 26.4 79.5 45 13.7 56.6
10:40 1018 30.06 847 25.01 26.1 79 46 14 57.1
10:45 1018 30.06 847 25.01 25.2 77.4 48 13.7 56.6
10:50 1018 30.06 847 25.01 25.1 77.2 48 13.5 56.3
10:55 1018 30.06 847 25.01 25.3 77.5 45 12.9 55.2
11:00 1018 30.06 847 25.01 25.5 77.9 44 12.6 54.6
11:05 1018 30.06 847 25.01 25.8 78.4 43 12.4 54.3
11:10 1018 30.06 847 25.01 25.9 78.7 41 12 53.5
11:15 1018 30.06 847 25.01 26.6 79.8 38 11.4 52.5
11:20 1018 30.06 847 25.01 26.8 80.3 35 10.4 50.7
11:25 1018 30.06 847 25.01 27.5 81.4 35 10.9 51.7
11:30 1018 30.06 847 25.01 27.9 82.2 35 11.1 52
11:35 1018 30.06 847 25.01 28.4 83.2 33 10.8 51.4
11:40 1018 30.06 847 25.01 29 84.2 31 10.5 50.9
11:45 1018 30.06 847 25.01 29.1 84.4 32 11.1 52
11:50 1018 30.06 847 25.01 29.1 84.5 32 10.9 51.5
11:55 1018 30.06 847 25.01 27.6 81.7 35 11 51.8
12:00 1018 30.06 847 25.01 27.4 81.3 35 11 51.9
12:05 1018 30.06 847 25.01 27.4 81.3 32 9.6 49.3
12:10 1018 30.06 847 25.01 27.3 81.1 32 9.4 48.8
12:15 1018 30.06 847 25.01 27.9 82.1 32 10 50
12:20 1018 30.06 847 25.01 29.1 84.4 28 9.2 48.6
12:25 1018 30.06 847 25.01 29.9 85.8 27 9.4 48.9
12:30 1018 30.06 847 25.01 29.9 85.8 29 10.1 50.3
12:35 1018 30.06 847 25.01 30.3 86.5 27 9.5 49.2
12:40 1018 30.06 847 25.01 30.5 86.9 28 10.2 50.3
12:45 1017 30.03 847 25.01 30.6 87.1 28 10.1 50.3
12:50 1017 30.03 847 25.01 29.9 85.8 28 9.8 49.6
12:55 1017 30.03 847 25.01 30.2 86.3 27 9.6 49.3
13:00 1017 30.03 846 24.98 30.8 87.4 28 10.3 50.6
13:05 1017 30.03 846 24.98 31 87.8 26 9.5 49.1
13:10 1017 30.03 846 24.98 31 87.7 25 9.1 48.4
13:15 1017 30.03 846 24.98 31.2 88.1 24 8.5 47.3
13:20 1017 30.03 846 24.98 31 87.7 25 8.9 48
13:25 1017 30.03 846 24.98 31.2 88.1 24 8.7 47.7
13:30 1017 30.03 846 24.98 31.9 89.4 23 8.4 47.2
13:35 1017 30.03 846 24.98 32.2 89.9 24 9.2 48.5
13:40 1017 30.03 846 24.98 32.1 89.7 24 9.3 48.7
13:45 1017 30.03 846 24.98 31.8 89.2 23 8.7 47.6
13:50 1017 30.03 846 24.98 31 87.8 25 8.8 47.8
13:55 1017 30.03 846 24.98 31.8 89.2 23 8.5 47.4
14:00 1017 30.03 846 24.98 32.4 90.3 24 9.4 48.9
14:05 1017 30.03 846 24.98 32.8 91 23 9.6 49.2
14:10 1017 30.03 846 24.98 32.1 89.7 24 9.6 49.3
14:15 1017 30.03 846 24.98 30.9 87.7 25 8.8 47.9
14:20 1017 30.03 846 24.98 31.4 88.5 25 9.3 48.8
14:25 1017 30.03 846 24.98 31.3 88.4 25 9.1 48.4
14:30 1017 30.03 846 24.98 31.1 88 25 9 48.1
14:35 1017 30.03 846 24.98 30.8 87.4 31 12.2 54
14:40 1017 30.03 846 24.98 29.2 84.6 34 12.2 53.9
14:45 1017 30.03 846 24.98 29 84.2 34 11.8 53.3
14:50 1016 30 846 24.98 28.9 84 30 10 50
14:55 1016 30 846 24.98 29.2 84.5 29 9.6 49.3
15:00 1016 30 846 24.98 29.3 84.8 30 10.3 50.5
15:05 1016 30 846 24.98 29.1 84.4 32 10.9 51.6
15:10 1016 30 846 24.98 29.2 84.5 32 11.2 52.2
15:15 1016 30 846 24.98 28.9 83.9 33 11.5 52.7
15:20 1016 30 846 24.98 28.2 82.7 37 12.3 54.2
15:25 1016 30 846 24.98 28 82.3 40 13.4 56.2
15:30 1016 30 846 24.98 27.5 81.5 39 12.6 54.6
15:35 1016 30 845 24.95 27.4 81.2 38 12.1 53.7
15:40 1016 30 845 24.95 27.6 81.6 37 11.9 53.4
15:45 1016 30 845 24.95 27.6 81.7 34 10.6 51.1
15:50 1016 30 845 24.95 28.3 83 37 12.5 54.6
15:55 1016 30 845 24.95 28.7 83.7 42 14.7 58.5
16:00 1016 30 845 24.95 28 82.4 39 13.2 55.7
16:05 1016 30 845 24.95 28.1 82.5 38 12.6 54.6
16:10 1016 30 845 24.95 28.5 83.4 45 15.8 60.4
16:15 1016 30 845 24.95 27.7 81.9 43 14.1 57.4
16:20 1016 30 845 24.95 27.9 82.3 39 12.8 55.1
16:25 1016 30 845 24.95 27.9 82.2 40 13.4 56.2
16:30 1016 30 845 24.95 28.2 82.7 40 13.6 56.5
16:35 1016 30 845 24.95 28.1 82.5 40 13.5 56.3
16:40 1016 30 845 24.95 27.4 81.4 46 14.9 58.8
16:45 1016 30 845 24.95 26.9 80.4 46 14.4 57.9
16:50 1016 30 845 24.95 26.2 79.2 48 14.5 58.2
16:55 1016 30 845 24.95 25.5 77.8 47 13.5 56.3
17:00 1016 30 845 24.95 25.2 77.4 48 13.6 56.5
17:05 1016 30 845 24.95 24.8 76.7 50 13.8 56.9
17:10 1016 30 845 24.95 24.6 76.2 46 12.2 54
17:15 1016 30 845 24.95 25.1 77.3 40 10.6 51.1
17:20 1016 30 845 24.95 25.9 78.7 35 9.6 49.3
17:25 1016 30 845 24.95 26.3 79.3 35 9.7 49.5
17:30 1016 30 845 24.95 26.3 79.3 39 11.5 52.6
17:35 1016 30 845 24.95 24.5 76.1 55 15.1 59.3
17:40 1016 30 845 24.95 23.1 73.5 58 14.4 57.9
17:45 1016 30 845 24.95 22.8 73.1 57 14.1 57.3
17:50 1016 30 845 24.95 22.4 72.3 59 14.1 57.4
17:55 1016 30 845 24.95 22.3 72.1 60 14.2 57.6
18:00 1016 30 845 24.95 22.3 72.2 60 14.3 57.8
18:05 1016 30 845 24.95 22.5 72.4 61 14.7 58.4
18:10 1016 30 845 24.95 22.8 73 61 14.9 58.8
18:15 1016 30 845 24.95 22.9 73.2 60 14.7 58.5
18:20 1016 30 845 24.95 23.1 73.6 59 14.9 58.8
18:25 1016 30 845 24.95 23.3 73.9 58 14.8 58.6
18:30 1016 30 845 24.95 23.4 74.2 55 14 57.2
18:35 1016 30 845 24.95 24 75.2 53 14 57.3
18:40 1016 30 845 24.95 24.4 75.8 52 14 57.2
18:45 1016 30 845 24.95 24.4 76 52 14 57.3
18:50 1016 30 845 24.95 24.4 75.9 51 13.7 56.7
18:55 1016 30 845 24.95 24.5 76 50 13.7 56.6
19:00 1016 30 845 24.95 24.4 76 51 13.8 56.9
19:05 1015 29.97 845 24.95 24.4 76 50 13.6 56.5
19:10 1016 30 845 24.95 24.5 76.2 49 13.3 55.9
19:15 1016 30 845 24.95 24.7 76.4 46 12.6 54.6
19:20 1015 29.97 845 24.95 24.8 76.6 45 12.2 54
19:25 1015 29.97 845 24.95 24.9 76.7 45 12.2 54
19:30 1015 29.97 845 24.95 24.8 76.7 45 12.2 53.9
19:35 1016 30 845 24.95 24.8 76.6 54 15 59.1
19:40 1016 30 845 24.95 24.1 75.4 57 15.3 59.5
19:45 1016 30 845 24.95 23.8 74.9 57 15 59
19:50 1016 30 845 24.95 24 75.2 54 14.3 57.7
19:55 1016 30 845 24.95 24.3 75.7 52 13.9 57
20:00 1016 30 845 24.95 24.3 75.8 53 14.3 57.7
20:05 1016 30 845 24.95 24.3 75.7 52 14 57.3
20:10 1016 30 845 24.95 24 75.3 52 13.9 57
20:15 1016 30 845 24.95 24 75.3 47 12.3 54.2
20:20 1016 30 845 24.95 24.2 75.6 45 11.8 53.2
20:25 1016 30 845 24.95 24.4 75.9 44 11.7 53.1
20:30 1016 30 845 24.95 24.3 75.8 45 11.9 53.5
20:35 1016 30 845 24.95 24 75.3 55 14.6 58.2
20:40 1016 30 845 24.95 23.4 74.2 53 13.6 56.4
20:45 1016 30 845 24.95 23.5 74.2 57 14.6 58.2
20:50 1016 30 845 24.95 23.3 74 57 14.6 58.3
20:55 1016 30 845 24.95 23.2 73.8 53 13.2 55.8
21:00 1016 30 845 24.95 23.2 73.8 55 13.8 56.8
21:05 1016 30 845 24.95 23.1 73.6 57 14.2 57.5
21:10 1016 30 845 24.95 23 73.3 57 14.2 57.6
21:15 1016 30 845 24.95 22.8 73 58 14.3 57.8
21:20 1016 30 845 24.95 22.5 72.4 58 13.9 57.1
21:25 1016 30 845 24.95 22.4 72.4 60 14.4 58
21:30 1016 30 845 24.95 22.3 72.2 59 14 57.2
21:35 1016 30 845 24.95 22.1 71.8 61 14.4 57.9
21:40 1016 30 845 24.95 21.9 71.5 63 14.7 58.5
21:45 1016 30 845 24.95 21.7 71 63 14.3 57.8
21:50 1016 30 845 24.95 21.7 71 61 13.8 56.9
21:55 1016 30 845 24.95 21.8 71.2 59 13.6 56.6
22:00 1016 30 845 24.95 21.9 71.4 57 13.1 55.6
22:05 1016 30 845 24.95 22.1 71.8 57 13.4 56.1
22:10 1016 30 845 24.95 22.2 71.9 57 13.4 56.2
22:15 1016 30 845 24.95 22.2 71.9 54 12.5 54.6
22:20 1016 30 845 24.95 22.4 72.3 52 12.1 53.8
22:25 1016 30 845 24.95 22.6 72.7 50 11.8 53.2
22:30 1016 30 846 24.98 22.8 73.1 49 11.9 53.3
22:35 1016 30 846 24.98 22.8 73 49 11.8 53.2
22:40 1017 30.03 846 24.98 22.8 73 50 11.9 53.4
22:45 1017 30.03 846 24.98 22.8 73 50 12.1 53.8
22:50 1017 30.03 846 24.98 22.6 72.7 51 12.3 54.1
22:55 1016 30 846 24.98 22.5 72.4 52 12.3 54.2
23:00 1016 30 846 24.98 22.4 72.3 52 12.3 54.1
23:05 1017 30.03 846 24.98 22.3 72.1 52 12.1 53.8
23:10 1017 30.03 846 24.98 22.2 72 52 12.1 53.8
23:15 1017 30.03 846 24.98 22.2 72 52 12 53.6
23:20 1017 30.03 846 24.98 22.2 71.9 52 12 53.7
23:25 1017 30.03 846 24.98 22.1 71.8 52 11.9 53.4
23:30 1017 30.03 846 24.98 22.2 71.9 51 11.7 53.1
23:35 1017 30.03 846 24.98 22.2 72 51 11.7 53.1
23:40 1017 30.03 846 24.98 22.2 71.9 51 11.8 53.3
23:45 1017 30.03 846 24.98 22.1 71.9 51 11.6 52.9
23:50 1017 30.03 846 24.98 22.2 72 50 11.6 52.9
23:55 1017 30.03 846 24.98 22.2 72 50 11.5 52.8
24:00 1017 30.03 846 24.98 22.3 72.1 50 11.5 52.8